createdAt,value
2016-08-01T00:00:03.685Z,0
2016-08-01T00:01:03.688Z,0
2016-08-01T00:02:03.708Z,0
2016-08-01T00:03:03.648Z,0
2016-08-01T00:04:03.659Z,0
2016-08-01T00:05:03.649Z,0
2016-08-01T00:06:03.644Z,0
2016-08-01T00:07:03.632Z,0
2016-08-01T00:08:03.654Z,0
2016-08-01T00:09:03.605Z,0
2016-08-01T00:10:03.590Z,0
2016-08-01T00:11:03.576Z,0
2016-08-01T00:12:03.589Z,0
2016-08-01T00:13:03.567Z,0
2016-08-01T00:14:03.724Z,0
2016-08-01T00:15:03.549Z,0
2016-08-01T00:16:03.521Z,0
2016-08-01T00:17:03.525Z,0
2016-08-01T00:18:03.537Z,0
2016-08-01T00:19:03.480Z,0
2016-08-01T00:20:03.495Z,0
2016-08-01T00:21:03.481Z,0
2016-08-01T00:22:03.456Z,0
2016-08-01T00:23:03.471Z,0
2016-08-01T00:24:03.449Z,0
2016-08-01T00:25:03.473Z,0
2016-08-01T00:26:03.421Z,0
2016-08-01T00:27:03.414Z,0
2016-08-01T00:28:03.414Z,0
2016-08-01T00:29:03.412Z,0
2016-08-01T00:30:03.377Z,0
2016-08-01T00:31:03.363Z,0
2016-08-01T00:32:03.392Z,0
2016-08-01T00:33:03.357Z,0
2016-08-01T00:34:03.353Z,0
2016-08-01T00:35:03.335Z,0
2016-08-01T00:36:03.320Z,0
2016-08-01T00:37:03.328Z,0
2016-08-01T00:38:03.291Z,0
2016-08-01T00:39:03.310Z,0
2016-08-01T00:40:03.271Z,0
2016-08-01T00:41:03.299Z,0
2016-08-01T00:42:03.256Z,0
2016-08-01T00:43:03.280Z,0
2016-08-01T00:44:03.224Z,0
2016-08-01T00:45:03.230Z,0
2016-08-01T00:46:03.221Z,0
2016-08-01T00:47:03.233Z,0
2016-08-01T00:48:03.198Z,0
2016-08-01T00:49:03.186Z,0
2016-08-01T00:50:03.195Z,0
2016-08-01T00:51:03.173Z,0
2016-08-01T00:52:03.171Z,0
2016-08-01T00:53:03.153Z,0
2016-08-01T00:54:03.149Z,0
2016-08-01T00:55:03.121Z,0
2016-08-01T00:56:03.130Z,0
2016-08-01T00:57:03.119Z,0
2016-08-01T00:58:03.094Z,0
2016-08-01T00:59:03.103Z,0
2016-08-01T01:00:03.072Z,0
2016-08-01T01:01:03.086Z,0
2016-08-01T01:02:03.061Z,0
2016-08-01T01:03:03.062Z,0
2016-08-01T01:04:03.052Z,0
2016-08-01T01:05:03.012Z,0
2016-08-01T01:06:03.004Z,0
2016-08-01T01:07:03.011Z,0
2016-08-01T01:08:02.988Z,0
2016-08-01T01:09:03.018Z,0
2016-08-01T01:10:02.989Z,0
2016-08-01T01:11:02.992Z,0
2016-08-01T01:12:02.972Z,0
2016-08-01T01:13:02.981Z,0
2016-08-01T01:14:02.940Z,0
2016-08-01T01:15:02.921Z,0
2016-08-01T01:16:02.919Z,0
2016-08-01T01:17:02.906Z,0
2016-08-01T01:18:02.923Z,0
2016-08-01T01:19:02.904Z,0
2016-08-01T01:20:02.889Z,0
2016-08-01T01:21:02.874Z,0
2016-08-01T01:22:02.881Z,0
2016-08-01T01:23:02.858Z,0
2016-08-01T01:24:02.850Z,0
2016-08-01T01:25:02.839Z,0
2016-08-01T01:26:02.824Z,0
2016-08-01T01:27:02.801Z,0
2016-08-01T01:28:02.798Z,0
2016-08-01T01:29:02.807Z,0
2016-08-01T01:30:02.799Z,0
2016-08-01T01:31:02.752Z,0
2016-08-01T01:32:02.777Z,0
2016-08-01T01:33:02.753Z,0
2016-08-01T01:34:02.748Z,0
2016-08-01T01:35:02.730Z,0
2016-08-01T01:36:02.730Z,0
2016-08-01T01:37:02.685Z,0
2016-08-01T01:38:02.727Z,0
2016-08-01T01:39:02.685Z,0
2016-08-01T01:40:02.678Z,0
2016-08-01T01:41:02.675Z,0
2016-08-01T01:42:02.646Z,0
2016-08-01T01:43:02.673Z,0
2016-08-01T01:44:02.650Z,0
2016-08-01T01:45:02.627Z,0
2016-08-01T01:46:02.615Z,0
2016-08-01T01:47:03.300Z,0
2016-08-01T01:48:02.590Z,0
2016-08-01T01:49:02.588Z,0
2016-08-01T01:50:02.591Z,0
2016-08-01T01:51:02.580Z,0
2016-08-01T01:52:02.549Z,0
2016-08-01T01:53:02.535Z,0
2016-08-01T01:54:02.526Z,0
2016-08-01T01:55:02.546Z,0
2016-08-01T01:56:02.511Z,0
2016-08-01T01:57:02.514Z,0
2016-08-01T01:58:02.480Z,0
2016-08-01T01:59:02.499Z,0
2016-08-01T02:00:02.482Z,0
2016-08-01T02:01:02.474Z,0
2016-08-01T02:02:02.453Z,0
2016-08-01T02:03:02.429Z,0
2016-08-01T02:04:02.448Z,0
2016-08-01T02:05:02.436Z,0
2016-08-01T02:06:02.412Z,0
2016-08-01T02:07:02.378Z,0
2016-08-01T02:08:02.403Z,0
2016-08-01T02:09:02.385Z,0
2016-08-01T02:10:02.369Z,0
2016-08-01T02:11:02.367Z,0
2016-08-01T02:12:02.337Z,0
2016-08-01T02:13:02.345Z,0
2016-08-01T02:14:02.331Z,0
2016-08-01T02:15:02.341Z,0
2016-08-01T02:16:02.309Z,0
2016-08-01T02:17:02.296Z,0
2016-08-01T02:18:02.261Z,0
2016-08-01T02:19:02.268Z,0
2016-08-01T02:20:02.259Z,0
2016-08-01T02:21:02.254Z,0
2016-08-01T02:22:02.230Z,0
2016-08-01T02:23:02.252Z,0
2016-08-01T02:24:02.246Z,0
2016-08-01T02:25:02.220Z,0
2016-08-01T02:26:02.205Z,0
2016-08-01T02:27:02.178Z,0
2016-08-01T02:28:02.195Z,0
2016-08-01T02:29:02.161Z,0
2016-08-01T02:30:02.162Z,0
2016-08-01T02:31:02.149Z,0
2016-08-01T02:32:02.151Z,0
2016-08-01T02:33:02.141Z,0
2016-08-01T02:34:02.164Z,0
2016-08-01T02:35:02.129Z,0
2016-08-01T02:36:02.119Z,0
2016-08-01T02:37:02.078Z,0
2016-08-01T02:38:02.075Z,0
2016-08-01T02:39:02.072Z,0
2016-08-01T02:40:02.096Z,0
2016-08-01T02:41:02.052Z,0
2016-08-01T02:42:02.053Z,0
2016-08-01T02:43:02.032Z,0
2016-08-01T02:44:02.024Z,0
2016-08-01T02:45:02.031Z,0
2016-08-01T02:46:02.015Z,0
2016-08-01T02:47:02.018Z,0
2016-08-01T02:48:01.988Z,0
2016-08-01T02:50:01.948Z,0
2016-08-01T02:51:02.689Z,0
2016-08-01T02:52:01.956Z,0
2016-08-01T02:53:01.941Z,0
2016-08-01T02:54:01.932Z,0
2016-08-01T02:55:01.928Z,0
2016-08-01T02:56:01.908Z,0
2016-08-01T02:57:02.597Z,0
2016-08-01T02:58:01.905Z,0
2016-08-01T02:59:01.875Z,0
2016-08-01T03:00:01.855Z,0
2016-08-01T03:01:01.866Z,0
2016-08-01T03:02:01.854Z,0
2016-08-01T03:03:01.854Z,0
2016-08-01T03:05:02.537Z,0
2016-08-01T03:06:01.805Z,0
2016-08-01T03:07:01.816Z,0
2016-08-01T03:08:01.791Z,0
2016-08-01T03:09:01.781Z,0
2016-08-01T03:10:01.784Z,0
2016-08-01T03:11:01.771Z,0
2016-08-01T03:12:01.777Z,0
2016-08-01T03:13:01.789Z,0
2016-08-01T03:14:01.731Z,0
2016-08-01T03:15:01.794Z,0
2016-08-01T03:16:01.717Z,0
2016-08-01T03:17:01.730Z,0
2016-08-01T03:18:01.717Z,0
2016-08-01T03:19:01.710Z,0
2016-08-01T03:20:01.683Z,0
2016-08-01T03:21:01.684Z,0
2016-08-01T03:22:01.690Z,0
2016-08-01T03:23:01.654Z,0
2016-08-01T03:24:01.658Z,0
2016-08-01T03:25:01.665Z,4
2016-08-01T03:26:01.628Z,4
2016-08-01T03:27:01.630Z,0
2016-08-01T03:28:01.638Z,4
2016-08-01T03:29:01.596Z,4
2016-08-01T03:30:01.601Z,4
2016-08-01T03:31:01.568Z,8
2016-08-01T03:32:01.606Z,8
2016-08-01T03:33:01.581Z,12
2016-08-01T03:34:01.565Z,12
2016-08-01T03:35:01.532Z,12
2016-08-01T03:36:01.558Z,16
2016-08-01T03:37:01.543Z,16
2016-08-01T03:38:01.518Z,16
2016-08-01T03:39:01.513Z,20
2016-08-01T03:40:01.520Z,20
2016-08-01T03:41:01.519Z,24
2016-08-01T03:42:01.468Z,24
2016-08-01T03:43:01.477Z,28
2016-08-01T03:44:01.475Z,28
2016-08-01T03:45:01.443Z,36
2016-08-01T03:46:01.477Z,36
2016-08-01T03:47:01.449Z,40
2016-08-01T03:48:01.431Z,40
2016-08-01T03:49:01.418Z,44
2016-08-01T03:50:01.389Z,44
2016-08-01T03:51:01.413Z,48
2016-08-01T03:52:01.392Z,56
2016-08-01T03:53:01.369Z,68
2016-08-01T03:54:01.388Z,72
2016-08-01T03:55:01.355Z,76
2016-08-01T03:56:01.335Z,92
2016-08-01T03:57:01.322Z,120
2016-08-01T03:58:01.355Z,148
2016-08-01T03:59:01.341Z,172
2016-08-01T04:00:01.329Z,212
2016-08-01T04:01:01.326Z,244
2016-08-01T04:02:01.269Z,276
2016-08-01T04:03:01.276Z,288
2016-08-01T04:04:01.277Z,308
2016-08-01T04:05:01.270Z,324
2016-08-01T04:06:01.257Z,332
2016-08-01T04:07:01.237Z,328
2016-08-01T04:08:01.243Z,332
2016-08-01T04:09:01.230Z,376
2016-08-01T04:10:01.213Z,416
2016-08-01T04:11:01.189Z,408
2016-08-01T04:12:01.191Z,360
2016-08-01T04:13:01.199Z,348
2016-08-01T04:14:01.171Z,364
2016-08-01T04:15:01.168Z,408
2016-08-01T04:16:01.165Z,428
2016-08-01T04:17:01.133Z,468
2016-08-01T04:18:01.164Z,512
2016-08-01T04:19:01.136Z,552
2016-08-01T04:20:01.128Z,560
2016-08-01T04:21:01.113Z,556
2016-08-01T04:22:01.080Z,560
2016-08-01T04:23:01.105Z,548
2016-08-01T04:24:01.087Z,588
2016-08-01T04:25:01.064Z,644
2016-08-01T04:26:01.082Z,672
2016-08-01T04:27:01.066Z,712
2016-08-01T04:28:01.041Z,676
2016-08-01T04:29:01.031Z,644
2016-08-01T04:30:01.032Z,652
2016-08-01T04:31:01.021Z,704
2016-08-01T04:32:01.718Z,784
2016-08-01T04:33:00.982Z,860
2016-08-01T04:34:00.987Z,868
2016-08-01T04:35:00.969Z,872
2016-08-01T04:36:00.967Z,888
2016-08-01T04:37:00.958Z,956
2016-08-01T04:38:00.944Z,1100
2016-08-01T04:39:00.934Z,1140
2016-08-01T04:40:00.930Z,1252
2016-08-01T04:41:00.899Z,1396
2016-08-01T04:42:00.934Z,1552
2016-08-01T04:43:00.899Z,1664
2016-08-01T04:44:00.890Z,1648
2016-08-01T04:45:00.882Z,1616
2016-08-01T04:46:00.867Z,1660
2016-08-01T04:47:00.887Z,1560
2016-08-01T04:48:00.845Z,1340
2016-08-01T04:49:00.851Z,1208
2016-08-01T04:50:00.821Z,1164
2016-08-01T04:51:00.836Z,1124
2016-08-01T04:52:00.823Z,1204
2016-08-01T04:53:00.810Z,1396
2016-08-01T04:54:01.488Z,1440
2016-08-01T04:55:00.771Z,1536
2016-08-01T04:56:00.756Z,1824
2016-08-01T04:57:00.778Z,1980
2016-08-01T04:58:00.738Z,2264
2016-08-01T04:59:00.744Z,2284
2016-08-01T05:00:00.730Z,2156
2016-08-01T05:01:00.706Z,2052
2016-08-01T05:02:00.702Z,2048
2016-08-01T05:03:00.692Z,2156
2016-08-01T05:04:00.699Z,2412
2016-08-01T05:05:00.689Z,2752
2016-08-01T05:06:00.682Z,2928
2016-08-01T05:07:00.671Z,3404
2016-08-01T05:08:00.667Z,3804
2016-08-01T05:09:00.651Z,4108
2016-08-01T05:10:00.629Z,5088
2016-08-01T05:11:00.650Z,6160
2016-08-01T05:12:00.625Z,7148
2016-08-01T05:13:00.605Z,7532
2016-08-01T05:14:00.574Z,7196
2016-08-01T05:15:00.692Z,7008
2016-08-01T05:16:00.564Z,7312
2016-08-01T05:17:00.592Z,8572
2016-08-01T05:18:00.564Z,9432
2016-08-01T05:19:00.529Z,8940
2016-08-01T05:20:00.543Z,7620
2016-08-01T05:21:00.543Z,6996
2016-08-01T05:22:00.541Z,6828
2016-08-01T05:23:00.528Z,7336
2016-08-01T05:24:00.499Z,8176
2016-08-01T05:25:00.493Z,9300
2016-08-01T05:26:00.501Z,9528
2016-08-01T05:27:00.471Z,8824
2016-08-01T05:28:00.450Z,8280
2016-08-01T05:29:00.479Z,8020
2016-08-01T05:30:00.448Z,7628
2016-08-01T05:31:00.428Z,7492
2016-08-01T05:32:00.429Z,7624
2016-08-01T05:33:00.428Z,8244
2016-08-01T05:34:00.385Z,8664
2016-08-01T05:35:00.385Z,8984
2016-08-01T05:36:00.405Z,8804
2016-08-01T05:37:00.381Z,8672
2016-08-01T05:38:00.381Z,8592
2016-08-01T05:39:00.350Z,8356
2016-08-01T05:40:00.352Z,7832
2016-08-01T05:41:00.353Z,7020
2016-08-01T05:42:00.347Z,6632
2016-08-01T05:43:00.337Z,6476
2016-08-01T05:44:00.338Z,6936
2016-08-01T05:45:00.285Z,7460
2016-08-01T05:46:00.309Z,8048
2016-08-01T05:47:00.285Z,8640
2016-08-01T05:48:00.278Z,9308
2016-08-01T05:49:00.262Z,9344
2016-08-01T05:50:00.237Z,8572
2016-08-01T05:51:00.251Z,8020
2016-08-01T05:52:00.237Z,7148
2016-08-01T05:53:00.253Z,6364
2016-08-01T05:54:00.226Z,6008
2016-08-01T05:55:00.211Z,5748
2016-08-01T05:56:00.218Z,5716
2016-08-01T05:57:00.196Z,5896
2016-08-01T05:58:00.184Z,6392
2016-08-01T05:59:00.177Z,6788
2016-08-01T06:00:00.149Z,6492
2016-08-01T06:01:00.848Z,6180
2016-08-01T06:02:00.153Z,6104
2016-08-01T06:03:00.129Z,6680
2016-08-01T06:04:00.128Z,7064
2016-08-01T06:05:00.118Z,7448
2016-08-01T06:06:00.112Z,7740
2016-08-01T06:07:00.070Z,8188
2016-08-01T06:08:00.084Z,8204
2016-08-01T06:09:00.071Z,8576
2016-08-01T06:10:00.072Z,8116
2016-08-01T06:11:00.025Z,7540
2016-08-01T06:12:00.049Z,7100
2016-08-01T06:13:00.054Z,6660
2016-08-01T06:14:00.029Z,6456
2016-08-01T06:15:00.019Z,6072
2016-08-01T06:15:59.996Z,6484
2016-08-01T06:16:59.997Z,6508
2016-08-01T06:17:59.983Z,6428
2016-08-01T06:18:59.958Z,7000
2016-08-01T06:19:59.959Z,7424
2016-08-01T06:20:59.937Z,7452
2016-08-01T06:21:59.947Z,7164
2016-08-01T06:22:59.946Z,6912
2016-08-01T06:23:59.939Z,7040
2016-08-01T06:24:59.919Z,7220
2016-08-01T06:25:59.896Z,7648
2016-08-01T06:26:59.901Z,7580
2016-08-01T06:27:59.865Z,7304
2016-08-01T06:28:59.871Z,7412
2016-08-01T06:29:59.859Z,7860
2016-08-01T06:30:59.832Z,8400
2016-08-01T06:31:59.852Z,9032
2016-08-01T06:32:59.841Z,9532
2016-08-01T06:33:59.795Z,9572
2016-08-01T06:34:59.799Z,9372
2016-08-01T06:35:59.758Z,9164
2016-08-01T06:37:00.462Z,8368
2016-08-01T06:37:59.754Z,7704
2016-08-01T06:38:59.770Z,7248
2016-08-01T06:39:59.763Z,7820
2016-08-01T06:40:59.738Z,8136
2016-08-01T06:41:59.715Z,7924
2016-08-01T06:42:59.695Z,7956
2016-08-01T06:43:59.707Z,8240
2016-08-01T06:44:59.684Z,8544
2016-08-01T06:45:59.677Z,8532
2016-08-01T06:46:59.676Z,9260
2016-08-01T06:47:59.672Z,9724
2016-08-01T06:48:59.623Z,8940
2016-08-01T06:49:59.653Z,9564
2016-08-01T06:50:59.632Z,8732
2016-08-01T06:51:59.602Z,7832
2016-08-01T06:52:59.605Z,8100
2016-08-01T06:53:59.609Z,7704
2016-08-01T06:54:59.568Z,7860
2016-08-01T06:55:59.560Z,8004
2016-08-01T06:56:59.552Z,8980
2016-08-01T06:57:59.560Z,9300
2016-08-01T06:58:59.518Z,9092
2016-08-01T06:59:59.528Z,8176
2016-08-01T07:00:59.514Z,8008
2016-08-01T07:01:59.490Z,7800
2016-08-01T07:02:59.487Z,7404
2016-08-01T07:03:59.479Z,7412
2016-08-01T07:05:00.167Z,7796
2016-08-01T07:05:59.454Z,8136
2016-08-01T07:06:59.459Z,8276
2016-08-01T07:07:59.438Z,8700
2016-08-01T07:08:59.431Z,9200
2016-08-01T07:09:59.415Z,9656
2016-08-01T07:10:59.407Z,10612
2016-08-01T07:11:59.410Z,10680
2016-08-01T07:12:59.362Z,9964
2016-08-01T07:13:59.359Z,9504
2016-08-01T07:14:59.358Z,9128
2016-08-01T07:15:59.336Z,9724
2016-08-01T07:16:59.325Z,10444
2016-08-01T07:17:59.333Z,11576
2016-08-01T07:18:59.339Z,11796
2016-08-01T07:19:59.346Z,11316
2016-08-01T07:20:59.319Z,11256
2016-08-01T07:21:59.286Z,11264
2016-08-01T07:22:59.289Z,11344
2016-08-01T07:23:59.263Z,11968
2016-08-01T07:24:59.272Z,12452
2016-08-01T07:25:59.238Z,12976
2016-08-01T07:26:59.238Z,13168
2016-08-01T07:27:59.223Z,12968
2016-08-01T07:28:59.205Z,13784
2016-08-01T07:29:59.214Z,15052
2016-08-01T07:30:59.184Z,14564
2016-08-01T07:31:59.196Z,14688
2016-08-01T07:32:59.145Z,14764
2016-08-01T07:41:53.317Z,15060
2016-08-01T07:42:08.571Z,14988
2016-08-01T07:43:08.563Z,14388
2016-08-01T07:44:08.562Z,13436
2016-08-01T07:45:08.541Z,13652
2016-08-01T07:46:10.276Z,13232
2016-08-01T07:47:08.803Z,12276
2016-08-01T07:48:08.525Z,12620
2016-08-01T07:49:08.513Z,12556
2016-08-01T07:50:09.213Z,12796
2016-08-01T07:51:08.545Z,13176
2016-08-01T07:52:08.470Z,14212
2016-08-01T07:53:08.458Z,15092
2016-08-01T07:54:08.440Z,15784
2016-08-01T07:55:08.467Z,15444
2016-08-01T07:56:08.403Z,14948
2016-08-01T07:57:08.412Z,16108
2016-08-01T07:58:08.397Z,17920
2016-08-01T07:59:08.421Z,19904
2016-08-01T08:00:08.402Z,19456
2016-08-01T08:01:08.363Z,18656
2016-08-01T08:02:09.107Z,19328
2016-08-01T08:03:08.352Z,19552
2016-08-01T08:04:08.341Z,18368
2016-08-01T08:06:09.007Z,16628
2016-08-01T08:07:08.315Z,16624
2016-08-01T08:08:08.325Z,16012
2016-08-01T08:09:08.294Z,15388
2016-08-01T08:10:08.999Z,16308
2016-08-01T08:11:08.286Z,17792
2016-08-01T08:12:08.284Z,17888
2016-08-01T08:13:08.253Z,17472
2016-08-01T08:14:08.249Z,16236
2016-08-01T08:15:08.926Z,15352
2016-08-01T08:16:08.219Z,16396
2016-08-01T08:17:08.211Z,19072
2016-08-01T08:18:08.207Z,20352
2016-08-01T08:19:08.164Z,20352
2016-08-01T08:20:08.163Z,20160
2016-08-01T08:21:08.166Z,21216
2016-08-01T08:22:08.135Z,25856
2016-08-01T08:23:08.152Z,23072
2016-08-01T08:24:08.127Z,21888
2016-08-01T08:25:08.142Z,21216
2016-08-01T08:26:08.120Z,21760
2016-08-01T08:27:08.118Z,22592
2016-08-01T08:28:08.113Z,24320
2016-08-01T08:29:08.057Z,27360
2016-08-01T08:30:08.049Z,26400
2016-08-01T08:31:08.045Z,30240
2016-08-01T08:32:08.044Z,33536
2016-08-01T08:33:08.045Z,33472
2016-08-01T08:34:08.016Z,38112
2016-08-01T08:35:08.026Z,38592
2016-08-01T08:36:07.996Z,36800
2016-08-01T08:37:07.974Z,35072
2016-08-01T08:38:07.991Z,38272
2016-08-01T08:39:07.954Z,41088
2016-08-01T08:40:07.963Z,38944
2016-08-01T08:41:07.960Z,42304
2016-08-01T08:42:07.924Z,45984
2016-08-01T08:43:07.941Z,46560
2016-08-01T08:44:07.919Z,47552
2016-08-01T08:45:07.902Z,55904
2016-08-01T08:46:08.578Z,54560
2016-08-01T08:47:07.877Z,57088
2016-08-01T08:48:07.891Z,62688
2016-08-01T08:49:07.867Z,54400
2016-08-01T08:50:07.851Z,49792
2016-08-01T08:51:07.846Z,59264
2016-08-01T08:52:07.814Z,54720
2016-08-01T08:53:07.819Z,50592
2016-08-01T08:54:07.800Z,55872
2016-08-01T08:55:07.797Z,63392
2016-08-01T08:56:07.802Z,61792
2016-08-01T08:57:07.761Z,80608
2016-08-01T08:58:07.766Z,59200
2016-08-01T08:59:07.740Z,63712
2016-08-01T09:00:07.751Z,59520
2016-08-01T09:01:07.742Z,66208
2016-08-01T09:02:07.719Z,69184
2016-08-01T09:03:08.619Z,60288
2016-08-01T09:04:07.692Z,68448
2016-08-01T09:05:07.670Z,84864
2016-08-01T09:06:07.682Z,69792
2016-08-01T09:07:07.684Z,91968
2016-08-01T09:08:07.658Z,89568
2016-08-01T09:09:07.649Z,73984
2016-08-01T09:10:07.634Z,72000
2016-08-01T09:11:07.607Z,75456
2016-08-01T09:12:07.640Z,66720
2016-08-01T09:13:07.623Z,71744
2016-08-01T09:14:07.588Z,74880
2016-08-01T09:15:07.627Z,93344
2016-08-01T09:16:07.566Z,88832
2016-08-01T09:17:07.560Z,116608
2016-08-01T09:18:07.587Z,79264
2016-08-01T09:19:07.576Z,78016
2016-08-01T09:20:07.552Z,92256
2016-08-01T09:21:07.517Z,78592
2016-08-01T09:22:07.526Z,73760
2016-08-01T09:23:07.503Z,92224
2016-08-01T09:24:08.184Z,85248
2016-08-01T09:25:07.488Z,80960
2016-08-01T09:26:07.499Z,91136
2016-08-01T09:27:07.466Z,63392
2016-08-01T09:28:07.480Z,71232
2016-08-01T09:29:07.460Z,72352
2016-08-01T09:30:07.438Z,80512
2016-08-01T09:31:07.452Z,101984
2016-08-01T09:32:07.409Z,100032
2016-08-01T09:33:07.417Z,108896
2016-08-01T09:34:07.392Z,120448
2016-08-01T09:35:07.417Z,126784
2016-08-01T09:36:07.406Z,112992
2016-08-01T09:37:07.390Z,123776
2016-08-01T09:38:07.362Z,83104
2016-08-01T09:39:07.352Z,105408
2016-08-01T09:40:07.343Z,93280
2016-08-01T09:41:07.326Z,80064
2016-08-01T09:42:07.333Z,81440
2016-08-01T09:43:07.536Z,92960
2016-08-01T09:44:07.311Z,105216
2016-08-01T09:45:07.297Z,115936
2016-08-01T09:46:07.275Z,83392
2016-08-01T09:47:07.270Z,115968
2016-08-01T09:48:07.268Z,164800
2016-08-01T09:49:07.276Z,108992
2016-08-01T09:50:07.252Z,107808
2016-08-01T09:51:07.253Z,119040
2016-08-01T09:52:07.260Z,115968
2016-08-01T09:53:07.211Z,132800
2016-08-01T09:54:07.424Z,88864
2016-08-01T09:55:07.409Z,73056
2016-08-01T09:56:07.194Z,77792
2016-08-01T09:57:07.199Z,74752
2016-08-01T09:58:07.209Z,64192
2016-08-01T09:59:07.167Z,67840
2016-08-01T10:00:07.182Z,59232
2016-08-01T10:01:07.165Z,61792
2016-08-01T10:02:07.185Z,70880
2016-08-01T10:03:07.175Z,68992
2016-08-01T10:04:07.138Z,61376
2016-08-01T10:05:07.148Z,53184
2016-08-01T10:06:07.118Z,49440
2016-08-01T10:07:07.287Z,48960
2016-08-01T10:08:07.130Z,45440
2016-08-01T10:09:07.098Z,38752
2016-08-01T10:10:07.076Z,34112
2016-08-01T10:11:07.082Z,31392
2016-08-01T10:12:07.102Z,28768
2016-08-01T10:13:07.062Z,29088
2016-08-01T10:14:07.063Z,28704
2016-08-01T10:15:07.066Z,25920
2016-08-01T10:16:07.057Z,24192
2016-08-01T10:17:21.942Z,23456
2016-08-01T10:18:07.029Z,24160
2016-08-01T10:19:07.015Z,23712
2016-08-01T10:20:07.647Z,21568
2016-08-01T10:21:07.194Z,22240
2016-08-01T10:22:06.992Z,22176
2016-08-01T10:23:06.985Z,22592
2016-08-01T10:24:06.993Z,24032
2016-08-01T10:25:06.958Z,27424
2016-08-01T10:26:06.976Z,27040
2016-08-01T10:27:06.927Z,30944
2016-08-01T10:28:06.952Z,31264
2016-08-01T10:29:06.960Z,32352
2016-08-01T10:30:07.120Z,32320
2016-08-01T10:31:07.125Z,31936
2016-08-01T10:32:07.080Z,30048
2016-08-01T10:33:07.088Z,26848
2016-08-01T10:34:07.083Z,27136
2016-08-01T10:35:06.884Z,28544
2016-08-01T10:36:06.859Z,31296
2016-08-01T10:37:06.847Z,32960
2016-08-01T10:38:06.848Z,28736
2016-08-01T10:39:06.834Z,27200
2016-08-01T10:40:06.822Z,32384
2016-08-01T10:41:06.824Z,30656
2016-08-01T10:42:06.781Z,32640
2016-08-01T10:43:07.486Z,34304
2016-08-01T10:44:06.971Z,30496
2016-08-01T10:45:06.984Z,26688
2016-08-01T10:46:06.992Z,24640
2016-08-01T10:47:06.768Z,22816
2016-08-01T10:48:06.778Z,20800
2016-08-01T10:49:06.720Z,20224
2016-08-01T10:50:06.723Z,20160
2016-08-01T10:51:06.710Z,20736
2016-08-01T10:52:06.711Z,21472
2016-08-01T10:53:06.706Z,21536
2016-08-01T10:54:06.661Z,22496
2016-08-01T10:55:06.657Z,22432
2016-08-01T10:56:06.862Z,21888
2016-08-01T10:57:08.071Z,23584
2016-08-01T10:58:06.659Z,22432
2016-08-01T10:59:06.643Z,20544
2016-08-01T11:00:06.613Z,20256
2016-08-01T11:01:06.632Z,19328
2016-08-01T11:02:06.590Z,20320
2016-08-01T11:03:06.600Z,23008
2016-08-01T11:04:06.584Z,28832
2016-08-01T11:05:06.562Z,33056
2016-08-01T11:06:07.263Z,31488
2016-08-01T11:07:06.550Z,32224
2016-08-01T11:08:06.516Z,32928
2016-08-01T11:09:06.739Z,35968
2016-08-01T11:10:06.497Z,41504
2016-08-01T11:11:06.690Z,42848
2016-08-01T11:12:06.479Z,41216
2016-08-01T11:13:06.503Z,36832
2016-08-01T11:14:06.463Z,37088
2016-08-01T11:15:06.487Z,37056
2016-08-01T11:16:06.455Z,33280
2016-08-01T11:17:06.440Z,26400
2016-08-01T11:18:06.462Z,23648
2016-08-01T11:19:06.438Z,22464
2016-08-01T11:20:06.403Z,24352
2016-08-01T11:21:06.398Z,24512
2016-08-01T11:22:06.598Z,21696
2016-08-01T11:23:07.807Z,20352
2016-08-01T11:24:06.607Z,20256
2016-08-01T11:25:06.357Z,20032
2016-08-01T11:26:06.397Z,20448
2016-08-01T11:27:06.323Z,19616
2016-08-01T11:28:06.318Z,19104
2016-08-01T11:29:06.339Z,17920
2016-08-01T11:30:06.352Z,16624
2016-08-01T11:31:06.278Z,16100
2016-08-01T11:32:06.279Z,15792
2016-08-01T11:33:06.295Z,15404
2016-08-01T11:34:06.267Z,15972
2016-08-01T11:35:06.460Z,17536
2016-08-01T11:36:07.225Z,19616
2016-08-01T11:37:06.235Z,19936
2016-08-01T11:38:06.249Z,19584
2016-08-01T11:39:06.231Z,20320
2016-08-01T11:40:06.238Z,21280
2016-08-01T11:41:06.212Z,21696
2016-08-01T11:42:06.214Z,20352
2016-08-01T11:43:06.193Z,20352
2016-08-01T11:44:06.184Z,20512
2016-08-01T11:45:06.162Z,19936
2016-08-01T11:46:06.364Z,19264
2016-08-01T11:47:06.157Z,19648
2016-08-01T11:48:06.141Z,20768
2016-08-01T11:49:06.841Z,21632
2016-08-01T11:50:06.115Z,20832
2016-08-01T11:51:06.097Z,20768
2016-08-01T11:52:06.077Z,21152
2016-08-01T11:53:06.068Z,21024
2016-08-01T11:54:06.084Z,20288
2016-08-01T11:55:06.074Z,20256
2016-08-01T11:56:06.072Z,19008
2016-08-01T11:57:06.038Z,18784
2016-08-01T11:58:06.217Z,18272
2016-08-01T11:59:06.203Z,17632
2016-08-01T12:00:06.223Z,18208
2016-08-01T12:01:06.687Z,19360
2016-08-01T12:02:05.995Z,20064
2016-08-01T12:03:05.977Z,18464
2016-08-01T12:04:05.972Z,18336
2016-08-01T12:05:05.935Z,19232
2016-08-01T12:06:05.914Z,18560
2016-08-01T12:07:05.944Z,17824
2016-08-01T12:08:05.947Z,17472
2016-08-01T12:09:05.894Z,17600
2016-08-01T12:10:05.910Z,18560
2016-08-01T12:11:06.075Z,18912
2016-08-01T12:12:06.097Z,18528
2016-08-01T12:13:06.055Z,19232
2016-08-01T12:14:05.841Z,20448
2016-08-01T12:15:05.857Z,21792
2016-08-01T12:16:05.995Z,24384
2016-08-01T12:17:05.836Z,24896
2016-08-01T12:18:05.833Z,22112
2016-08-01T12:19:06.515Z,19616
2016-08-01T12:20:05.817Z,18208
2016-08-01T12:22:05.765Z,20192
2016-08-01T12:23:05.755Z,21472
2016-08-01T12:24:05.946Z,23776
2016-08-01T12:25:05.931Z,25088
2016-08-01T12:26:05.737Z,25952
2016-08-01T12:27:05.713Z,25792
2016-08-01T12:28:05.691Z,23456
2016-08-01T12:29:05.718Z,22240
2016-08-01T12:30:05.694Z,23008
2016-08-01T12:31:05.699Z,22400
2016-08-01T12:32:05.696Z,22176
2016-08-01T12:33:05.648Z,20896
2016-08-01T12:34:05.655Z,22176
2016-08-01T12:35:05.652Z,23872
2016-08-01T12:37:05.618Z,25440
2016-08-01T12:38:05.614Z,27328
2016-08-01T12:39:05.613Z,27200
2016-08-01T12:40:05.589Z,29536
2016-08-01T12:41:05.571Z,32096
2016-08-01T12:42:05.588Z,36448
2016-08-01T12:43:05.540Z,29664
2016-08-01T12:44:05.553Z,27104
2016-08-01T12:45:06.245Z,23232
2016-08-01T12:46:05.543Z,23680
2016-08-01T12:47:05.509Z,21056
2016-08-01T12:48:05.499Z,19456
2016-08-01T12:49:05.727Z,16496
2016-08-01T12:50:05.473Z,15496
2016-08-01T12:51:05.480Z,15500
2016-08-01T12:52:05.461Z,16424
2016-08-01T12:53:05.464Z,16480
2016-08-01T12:54:05.434Z,14912
2016-08-01T12:55:05.434Z,15208
2016-08-01T12:56:05.431Z,15280
2016-08-01T12:57:05.420Z,14624
2016-08-01T12:58:05.400Z,14380
2016-08-01T12:59:05.385Z,15524
2016-08-01T13:00:05.377Z,14992
2016-08-01T13:01:05.555Z,14412
2016-08-01T13:02:05.556Z,14968
2016-08-01T13:03:05.354Z,14384
2016-08-01T13:04:05.364Z,15164
2016-08-01T13:05:05.303Z,16516
2016-08-01T13:06:05.321Z,15688
2016-08-01T13:07:05.312Z,13440
2016-08-01T13:08:05.307Z,12492
2016-08-01T13:09:05.275Z,12248
2016-08-01T13:10:05.295Z,12608
2016-08-01T13:11:05.266Z,16572
2016-08-01T13:12:05.278Z,19232
2016-08-01T13:13:05.260Z,18880
2016-08-01T13:14:05.242Z,21088
2016-08-01T13:15:05.238Z,19776
2016-08-01T13:16:05.483Z,16268
2016-08-01T13:17:05.233Z,14700
2016-08-01T13:18:05.207Z,15812
2016-08-01T13:19:05.181Z,15652
2016-08-01T13:20:05.197Z,15000
2016-08-01T13:21:05.171Z,18208
2016-08-01T13:22:05.158Z,19712
2016-08-01T13:23:05.151Z,18816
2016-08-01T13:24:05.147Z,20064
2016-08-01T13:25:05.132Z,19968
2016-08-01T13:26:05.089Z,19776
2016-08-01T13:27:05.110Z,16880
2016-08-01T13:28:05.087Z,15424
2016-08-01T13:29:05.096Z,17632
2016-08-01T13:30:05.082Z,21056
2016-08-01T13:31:05.090Z,19968
2016-08-01T13:32:05.046Z,18048
2016-08-01T13:33:05.046Z,21536
2016-08-01T13:34:05.045Z,23392
2016-08-01T13:35:05.044Z,25120
2016-08-01T13:36:05.015Z,24512
2016-08-01T13:37:05.023Z,24000
2016-08-01T13:38:05.211Z,23008
2016-08-01T13:39:05.211Z,19712
2016-08-01T13:40:04.980Z,17664
2016-08-01T13:41:04.944Z,14956